sensor_id;sensor_type;location;lat;lon;timestamp;P1;durP1;ratioP1;P2;durP2;ratioP2
14704;SDS011;7442;50.840;3.396;2022-12-07T00:02:08;15.18;;;8.20;;
14704;SDS011;7442;50.840;3.396;2022-12-07T00:04:38;18.02;;;8.50;;
14704;SDS011;7442;50.840;3.396;2022-12-07T00:07:09;16.57;;;8.38;;
14704;SDS011;7442;50.840;3.396;2022-12-07T00:09:39;13.38;;;7.50;;
14704;SDS011;7442;50.840;3.396;2022-12-07T00:12:09;16.67;;;7.70;;
14704;SDS011;7442;50.840;3.396;2022-12-07T00:14:41;16.40;;;7.58;;
14704;SDS011;7442;50.840;3.396;2022-12-07T00:17:11;14.45;;;7.25;;
14704;SDS011;7442;50.840;3.396;2022-12-07T00:19:41;14.73;;;7.47;;
14704;SDS011;7442;50.840;3.396;2022-12-07T00:22:11;12.43;;;6.92;;
14704;SDS011;7442;50.840;3.396;2022-12-07T00:24:41;14.87;;;7.00;;
14704;SDS011;7442;50.840;3.396;2022-12-07T00:27:14;13.72;;;6.87;;
14704;SDS011;7442;50.840;3.396;2022-12-07T00:29:44;11.40;;;6.90;;
14704;SDS011;7442;50.840;3.396;2022-12-07T00:32:14;12.75;;;6.70;;
14704;SDS011;7442;50.840;3.396;2022-12-07T00:34:44;13.48;;;6.75;;
14704;SDS011;7442;50.840;3.396;2022-12-07T00:37:14;12.50;;;6.67;;
14704;SDS011;7442;50.840;3.396;2022-12-07T00:39:45;13.03;;;6.25;;
14704;SDS011;7442;50.840;3.396;2022-12-07T00:42:15;11.60;;;6.28;;
14704;SDS011;7442;50.840;3.396;2022-12-07T00:44:45;11.50;;;5.92;;
14704;SDS011;7442;50.840;3.396;2022-12-07T00:47:15;8.40;;;5.08;;
14704;SDS011;7442;50.840;3.396;2022-12-07T00:49:46;10.70;;;6.40;;
14704;SDS011;7442;50.840;3.396;2022-12-07T00:52:16;12.25;;;5.20;;
14704;SDS011;7442;50.840;3.396;2022-12-07T00:54:46;8.95;;;5.80;;
14704;SDS011;7442;50.840;3.396;2022-12-07T00:57:16;9.38;;;5.05;;
14704;SDS011;7442;50.840;3.396;2022-12-07T00:59:46;11.70;;;5.67;;
14704;SDS011;7442;50.840;3.396;2022-12-07T01:02:17;8.33;;;5.03;;
14704;SDS011;7442;50.840;3.396;2022-12-07T01:04:47;10.88;;;5.78;;
14704;SDS011;7442;50.840;3.396;2022-12-07T01:07:17;9.60;;;5.25;;
14704;SDS011;7442;50.840;3.396;2022-12-07T01:09:47;9.13;;;5.12;;
14704;SDS011;7442;50.840;3.396;2022-12-07T01:12:17;8.90;;;5.33;;
14704;SDS011;7442;50.840;3.396;2022-12-07T01:14:47;9.93;;;5.28;;
14704;SDS011;7442;50.840;3.396;2022-12-07T01:17:17;7.90;;;4.70;;
14704;SDS011;7442;50.840;3.396;2022-12-07T01:19:47;9.65;;;5.28;;
14704;SDS011;7442;50.840;3.396;2022-12-07T01:22:17;9.30;;;4.65;;
14704;SDS011;7442;50.840;3.396;2022-12-07T01:24:48;8.80;;;4.55;;
14704;SDS011;7442;50.840;3.396;2022-12-07T01:27:18;8.95;;;5.17;;
14704;SDS011;7442;50.840;3.396;2022-12-07T01:29:48;7.20;;;4.53;;
14704;SDS011;7442;50.840;3.396;2022-12-07T01:32:19;9.90;;;4.72;;
14704;SDS011;7442;50.840;3.396;2022-12-07T01:34:49;7.87;;;4.90;;
14704;SDS011;7442;50.840;3.396;2022-12-07T01:37:19;6.67;;;4.30;;
14704;SDS011;7442;50.840;3.396;2022-12-07T01:39:50;6.58;;;4.00;;
14704;SDS011;7442;50.840;3.396;2022-12-07T01:42:20;7.95;;;4.60;;
14704;SDS011;7442;50.840;3.396;2022-12-07T01:47:53;7.80;;;4.53;;
14704;SDS011;7442;50.840;3.396;2022-12-07T01:50:25;6.03;;;3.98;;
14704;SDS011;7442;50.840;3.396;2022-12-07T01:52:59;5.70;;;3.98;;
14704;SDS011;7442;50.840;3.396;2022-12-07T01:55:32;7.00;;;4.45;;
14704;SDS011;7442;50.840;3.396;2022-12-07T01:58:05;7.00;;;3.90;;
14704;SDS011;7442;50.840;3.396;2022-12-07T02:00:36;7.33;;;4.22;;
14704;SDS011;7442;50.840;3.396;2022-12-07T02:03:08;7.17;;;3.92;;
14704;SDS011;7442;50.840;3.396;2022-12-07T02:05:40;5.80;;;3.50;;
14704;SDS011;7442;50.840;3.396;2022-12-07T02:08:12;5.65;;;3.35;;
14704;SDS011;7442;50.840;3.396;2022-12-07T02:10:43;7.12;;;3.58;;
14704;SDS011;7442;50.840;3.396;2022-12-07T02:13:15;5.50;;;3.60;;
14704;SDS011;7442;50.840;3.396;2022-12-07T02:15:52;5.17;;;3.67;;
14704;SDS011;7442;50.840;3.396;2022-12-07T02:21:46;5.65;;;3.72;;
14704;SDS011;7442;50.840;3.396;2022-12-07T02:30:19;4.70;;;3.10;;
14704;SDS011;7442;50.840;3.396;2022-12-07T02:33:06;5.47;;;3.15;;
14704;SDS011;7442;50.840;3.396;2022-12-07T02:40:51;5.47;;;3.40;;
14704;SDS011;7442;50.840;3.396;2022-12-07T02:43:24;4.95;;;3.30;;
14704;SDS011;7442;50.840;3.396;2022-12-07T02:45:58;4.95;;;3.58;;
14704;SDS011;7442;50.840;3.396;2022-12-07T02:48:29;5.67;;;3.10;;
14704;SDS011;7442;50.840;3.396;2022-12-07T02:51:02;5.75;;;3.10;;
14704;SDS011;7442;50.840;3.396;2022-12-07T02:53:36;4.10;;;3.08;;
14704;SDS011;7442;50.840;3.396;2022-12-07T02:56:15;3.95;;;3.02;;
14704;SDS011;7442;50.840;3.396;2022-12-07T02:58:50;3.95;;;2.72;;
14704;SDS011;7442;50.840;3.396;2022-12-07T03:01:51;4.58;;;2.92;;
14704;SDS011;7442;50.840;3.396;2022-12-07T03:07:20;3.40;;;2.58;;
14704;SDS011;7442;50.840;3.396;2022-12-07T03:12:16;3.50;;;2.55;;
14704;SDS011;7442;50.840;3.396;2022-12-07T03:14:56;3.98;;;2.70;;
14704;SDS011;7442;50.840;3.396;2022-12-07T03:17:27;4.72;;;2.87;;
14704;SDS011;7442;50.840;3.396;2022-12-07T03:20:00;3.65;;;2.52;;
14704;SDS011;7442;50.840;3.396;2022-12-07T03:22:32;3.20;;;2.10;;
14704;SDS011;7442;50.840;3.396;2022-12-07T03:25:06;7.90;;;2.77;;
14704;SDS011;7442;50.840;3.396;2022-12-07T03:27:57;3.62;;;2.15;;
14704;SDS011;7442;50.840;3.396;2022-12-07T03:30:31;2.65;;;2.30;;
14704;SDS011;7442;50.840;3.396;2022-12-07T03:33:10;3.17;;;2.50;;
14704;SDS011;7442;50.840;3.396;2022-12-07T03:35:48;2.42;;;2.22;;
14704;SDS011;7442;50.840;3.396;2022-12-07T03:38:21;4.53;;;2.55;;
14704;SDS011;7442;50.840;3.396;2022-12-07T03:41:00;2.40;;;2.20;;
14704;SDS011;7442;50.840;3.396;2022-12-07T03:43:32;3.47;;;2.42;;
14704;SDS011;7442;50.840;3.396;2022-12-07T03:48:57;3.15;;;2.33;;
14704;SDS011;7442;50.840;3.396;2022-12-07T03:51:43;3.20;;;2.27;;
14704;SDS011;7442;50.840;3.396;2022-12-07T03:54:24;2.10;;;1.90;;
14704;SDS011;7442;50.840;3.396;2022-12-07T03:56:55;2.60;;;2.10;;
14704;SDS011;7442;50.840;3.396;2022-12-07T03:59:27;2.42;;;2.08;;
14704;SDS011;7442;50.840;3.396;2022-12-07T04:02:05;3.22;;;1.92;;
14704;SDS011;7442;50.840;3.396;2022-12-07T04:04:32;2.72;;;2.10;;
14704;SDS011;7442;50.840;3.396;2022-12-07T04:07:03;3.27;;;2.25;;
14704;SDS011;7442;50.840;3.396;2022-12-07T04:09:33;3.10;;;2.15;;
14704;SDS011;7442;50.840;3.396;2022-12-07T04:12:03;3.05;;;2.20;;
14704;SDS011;7442;50.840;3.396;2022-12-07T04:14:33;2.87;;;2.20;;
14704;SDS011;7442;50.840;3.396;2022-12-07T04:17:04;3.75;;;2.30;;
14704;SDS011;7442;50.840;3.396;2022-12-07T04:19:34;3.95;;;2.10;;
14704;SDS011;7442;50.840;3.396;2022-12-07T04:22:04;3.83;;;2.12;;
14704;SDS011;7442;50.840;3.396;2022-12-07T04:24:35;2.55;;;2.10;;
14704;SDS011;7442;50.840;3.396;2022-12-07T04:27:05;2.37;;;2.00;;
14704;SDS011;7442;50.840;3.396;2022-12-07T04:29:35;2.12;;;1.70;;
14704;SDS011;7442;50.840;3.396;2022-12-07T04:32:05;3.42;;;2.00;;
14704;SDS011;7442;50.840;3.396;2022-12-07T04:34:35;2.10;;;1.90;;
14704;SDS011;7442;50.840;3.396;2022-12-07T04:37:05;2.50;;;1.80;;
14704;SDS011;7442;50.840;3.396;2022-12-07T04:39:35;2.75;;;2.08;;
14704;SDS011;7442;50.840;3.396;2022-12-07T04:42:05;3.85;;;1.92;;
14704;SDS011;7442;50.840;3.396;2022-12-07T04:44:35;2.00;;;1.72;;
14704;SDS011;7442;50.840;3.396;2022-12-07T04:47:08;1.95;;;1.70;;
14704;SDS011;7442;50.840;3.396;2022-12-07T04:49:37;2.85;;;1.65;;
14704;SDS011;7442;50.840;3.396;2022-12-07T04:52:08;2.60;;;1.57;;
14704;SDS011;7442;50.840;3.396;2022-12-07T04:54:38;1.95;;;1.75;;
14704;SDS011;7442;50.840;3.396;2022-12-07T04:57:08;2.70;;;1.90;;
14704;SDS011;7442;50.840;3.396;2022-12-07T04:59:43;2.12;;;1.67;;
14704;SDS011;7442;50.840;3.396;2022-12-07T05:02:09;3.00;;;1.90;;
14704;SDS011;7442;50.840;3.396;2022-12-07T05:04:39;1.87;;;1.47;;
14704;SDS011;7442;50.840;3.396;2022-12-07T05:07:09;1.60;;;1.50;;
14704;SDS011;7442;50.840;3.396;2022-12-07T05:09:39;2.42;;;1.87;;
14704;SDS011;7442;50.840;3.396;2022-12-07T05:12:09;1.67;;;1.57;;
14704;SDS011;7442;50.840;3.396;2022-12-07T05:14:39;2.17;;;1.70;;
14704;SDS011;7442;50.840;3.396;2022-12-07T05:17:09;2.12;;;1.90;;
14704;SDS011;7442;50.840;3.396;2022-12-07T05:19:40;2.75;;;1.60;;
14704;SDS011;7442;50.840;3.396;2022-12-07T05:22:10;2.60;;;1.85;;
14704;SDS011;7442;50.840;3.396;2022-12-07T05:24:41;2.10;;;1.87;;
14704;SDS011;7442;50.840;3.396;2022-12-07T05:27:11;2.33;;;1.60;;
14704;SDS011;7442;50.840;3.396;2022-12-07T05:29:41;2.15;;;1.65;;
14704;SDS011;7442;50.840;3.396;2022-12-07T05:32:11;2.27;;;1.70;;
14704;SDS011;7442;50.840;3.396;2022-12-07T05:34:41;1.67;;;1.37;;
14704;SDS011;7442;50.840;3.396;2022-12-07T05:37:11;2.05;;;1.85;;
14704;SDS011;7442;50.840;3.396;2022-12-07T05:39:41;1.80;;;1.52;;
14704;SDS011;7442;50.840;3.396;2022-12-07T05:42:12;1.95;;;1.65;;
14704;SDS011;7442;50.840;3.396;2022-12-07T05:44:44;3.05;;;1.57;;
14704;SDS011;7442;50.840;3.396;2022-12-07T05:47:15;1.75;;;1.42;;
14704;SDS011;7442;50.840;3.396;2022-12-07T05:49:45;2.20;;;1.70;;
14704;SDS011;7442;50.840;3.396;2022-12-07T05:52:15;1.67;;;1.52;;
14704;SDS011;7442;50.840;3.396;2022-12-07T05:54:45;2.12;;;1.37;;
14704;SDS011;7442;50.840;3.396;2022-12-07T05:57:16;2.20;;;1.50;;
14704;SDS011;7442;50.840;3.396;2022-12-07T05:59:46;2.75;;;1.37;;
14704;SDS011;7442;50.840;3.396;2022-12-07T06:02:16;1.47;;;1.37;;
14704;SDS011;7442;50.840;3.396;2022-12-07T06:04:50;2.30;;;1.45;;
14704;SDS011;7442;50.840;3.396;2022-12-07T06:07:20;3.17;;;1.52;;
14704;SDS011;7442;50.840;3.396;2022-12-07T06:09:50;1.95;;;1.60;;
14704;SDS011;7442;50.840;3.396;2022-12-07T06:12:20;5.08;;;1.60;;
14704;SDS011;7442;50.840;3.396;2022-12-07T06:15:04;1.75;;;1.60;;
14704;SDS011;7442;50.840;3.396;2022-12-07T06:17:35;2.80;;;1.92;;
14704;SDS011;7442;50.840;3.396;2022-12-07T06:20:06;2.65;;;1.47;;
14704;SDS011;7442;50.840;3.396;2022-12-07T06:22:36;1.72;;;1.50;;
14704;SDS011;7442;50.840;3.396;2022-12-07T06:25:06;5.58;;;1.75;;
14704;SDS011;7442;50.840;3.396;2022-12-07T06:27:36;2.98;;;1.60;;
14704;SDS011;7442;50.840;3.396;2022-12-07T06:30:07;4.87;;;1.70;;
14704;SDS011;7442;50.840;3.396;2022-12-07T06:32:37;16.50;;;12.03;;
14704;SDS011;7442;50.840;3.396;2022-12-07T06:35:07;12.15;;;8.63;;
14704;SDS011;7442;50.840;3.396;2022-12-07T06:37:37;11.00;;;7.28;;
14704;SDS011;7442;50.840;3.396;2022-12-07T06:40:08;8.78;;;6.47;;
14704;SDS011;7442;50.840;3.396;2022-12-07T06:42:38;8.00;;;6.33;;
14704;SDS011;7442;50.840;3.396;2022-12-07T06:45:08;18.52;;;6.58;;
14704;SDS011;7442;50.840;3.396;2022-12-07T06:47:37;14.28;;;5.55;;
14704;SDS011;7442;50.840;3.396;2022-12-07T06:50:07;6.78;;;5.12;;
14704;SDS011;7442;50.840;3.396;2022-12-07T06:52:38;7.75;;;5.20;;
14704;SDS011;7442;50.840;3.396;2022-12-07T06:55:08;7.00;;;4.70;;
14704;SDS011;7442;50.840;3.396;2022-12-07T06:57:38;7.75;;;4.80;;
14704;SDS011;7442;50.840;3.396;2022-12-07T07:00:09;5.70;;;4.30;;
14704;SDS011;7442;50.840;3.396;2022-12-07T07:02:39;6.90;;;4.80;;
14704;SDS011;7442;50.840;3.396;2022-12-07T07:05:08;5.85;;;4.20;;
14704;SDS011;7442;50.840;3.396;2022-12-07T07:07:38;6.83;;;4.90;;
14704;SDS011;7442;50.840;3.396;2022-12-07T07:10:08;5.97;;;4.62;;
14704;SDS011;7442;50.840;3.396;2022-12-07T07:12:37;6.58;;;4.42;;
14704;SDS011;7442;50.840;3.396;2022-12-07T07:15:08;8.95;;;4.70;;
14704;SDS011;7442;50.840;3.396;2022-12-07T07:17:39;8.30;;;4.28;;
14704;SDS011;7442;50.840;3.396;2022-12-07T07:20:08;6.30;;;4.12;;
14704;SDS011;7442;50.840;3.396;2022-12-07T07:22:39;8.05;;;4.17;;
14704;SDS011;7442;50.840;3.396;2022-12-07T07:25:09;7.90;;;4.33;;
14704;SDS011;7442;50.840;3.396;2022-12-07T07:27:39;11.70;;;4.17;;
14704;SDS011;7442;50.840;3.396;2022-12-07T07:30:10;6.83;;;3.70;;
14704;SDS011;7442;50.840;3.396;2022-12-07T07:32:40;5.00;;;3.65;;
14704;SDS011;7442;50.840;3.396;2022-12-07T07:35:10;6.08;;;3.90;;
14704;SDS011;7442;50.840;3.396;2022-12-07T07:37:42;5.90;;;3.47;;
14704;SDS011;7442;50.840;3.396;2022-12-07T07:40:12;6.45;;;4.08;;
14704;SDS011;7442;50.840;3.396;2022-12-07T07:42:42;8.05;;;3.60;;
14704;SDS011;7442;50.840;3.396;2022-12-07T07:45:12;5.85;;;3.25;;
14704;SDS011;7442;50.840;3.396;2022-12-07T07:47:41;6.08;;;3.30;;
14704;SDS011;7442;50.840;3.396;2022-12-07T07:50:13;6.78;;;3.35;;
14704;SDS011;7442;50.840;3.396;2022-12-07T07:52:43;7.20;;;3.72;;
14704;SDS011;7442;50.840;3.396;2022-12-07T07:55:12;6.70;;;3.45;;
14704;SDS011;7442;50.840;3.396;2022-12-07T07:57:42;6.55;;;3.60;;
14704;SDS011;7442;50.840;3.396;2022-12-07T08:00:13;5.45;;;3.30;;
14704;SDS011;7442;50.840;3.396;2022-12-07T08:02:44;4.62;;;2.98;;
14704;SDS011;7442;50.840;3.396;2022-12-07T08:05:14;8.85;;;3.15;;
14704;SDS011;7442;50.840;3.396;2022-12-07T08:07:45;4.17;;;2.92;;
14704;SDS011;7442;50.840;3.396;2022-12-07T08:10:15;6.08;;;3.00;;
14704;SDS011;7442;50.840;3.396;2022-12-07T08:12:45;5.37;;;3.12;;
14704;SDS011;7442;50.840;3.396;2022-12-07T08:15:36;10.40;;;3.33;;
14704;SDS011;7442;50.840;3.396;2022-12-07T08:18:06;9.03;;;2.87;;
14704;SDS011;7442;50.840;3.396;2022-12-07T08:20:36;7.00;;;3.50;;
14704;SDS011;7442;50.840;3.396;2022-12-07T08:23:07;5.65;;;2.98;;
14704;SDS011;7442;50.840;3.396;2022-12-07T08:25:38;6.22;;;3.12;;
14704;SDS011;7442;50.840;3.396;2022-12-07T08:28:09;6.92;;;3.12;;
14704;SDS011;7442;50.840;3.396;2022-12-07T08:30:39;5.37;;;3.20;;
14704;SDS011;7442;50.840;3.396;2022-12-07T08:33:09;7.97;;;3.00;;
14704;SDS011;7442;50.840;3.396;2022-12-07T08:35:40;5.67;;;2.70;;
14704;SDS011;7442;50.840;3.396;2022-12-07T08:38:08;5.75;;;2.90;;
14704;SDS011;7442;50.840;3.396;2022-12-07T08:40:38;4.70;;;2.55;;
14704;SDS011;7442;50.840;3.396;2022-12-07T08:43:08;4.45;;;2.67;;
14704;SDS011;7442;50.840;3.396;2022-12-07T08:45:39;4.65;;;2.62;;
14704;SDS011;7442;50.840;3.396;2022-12-07T08:48:09;6.40;;;3.10;;
14704;SDS011;7442;50.840;3.396;2022-12-07T08:50:41;7.60;;;2.70;;
14704;SDS011;7442;50.840;3.396;2022-12-07T08:53:11;5.42;;;2.75;;
14704;SDS011;7442;50.840;3.396;2022-12-07T08:55:41;7.50;;;3.00;;
14704;SDS011;7442;50.840;3.396;2022-12-07T08:58:12;4.15;;;2.87;;
14704;SDS011;7442;50.840;3.396;2022-12-07T09:00:43;4.30;;;2.85;;
14704;SDS011;7442;50.840;3.396;2022-12-07T09:03:13;5.60;;;3.25;;
14704;SDS011;7442;50.840;3.396;2022-12-07T09:05:44;6.72;;;3.05;;
14704;SDS011;7442;50.840;3.396;2022-12-07T09:08:15;5.17;;;2.90;;
14704;SDS011;7442;50.840;3.396;2022-12-07T09:10:51;10.78;;;3.20;;
14704;SDS011;7442;50.840;3.396;2022-12-07T09:13:21;5.20;;;2.83;;
14704;SDS011;7442;50.840;3.396;2022-12-07T09:15:54;9.38;;;2.87;;
14704;SDS011;7442;50.840;3.396;2022-12-07T09:18:25;5.92;;;2.70;;
14704;SDS011;7442;50.840;3.396;2022-12-07T09:20:55;5.37;;;2.83;;
14704;SDS011;7442;50.840;3.396;2022-12-07T09:23:25;7.70;;;3.02;;
14704;SDS011;7442;50.840;3.396;2022-12-07T09:25:58;14.75;;;3.15;;
14704;SDS011;7442;50.840;3.396;2022-12-07T09:31:01;6.85;;;2.90;;
14704;SDS011;7442;50.840;3.396;2022-12-07T09:33:32;7.80;;;2.90;;
14704;SDS011;7442;50.840;3.396;2022-12-07T09:36:03;6.08;;;2.65;;
14704;SDS011;7442;50.840;3.396;2022-12-07T09:38:33;6.97;;;2.40;;
14704;SDS011;7442;50.840;3.396;2022-12-07T09:41:04;6.85;;;2.75;;
14704;SDS011;7442;50.840;3.396;2022-12-07T09:43:36;7.17;;;2.35;;
14704;SDS011;7442;50.840;3.396;2022-12-07T09:46:09;9.58;;;2.80;;
14704;SDS011;7442;50.840;3.396;2022-12-07T09:48:43;6.37;;;2.62;;
14704;SDS011;7442;50.840;3.396;2022-12-07T09:51:15;9.33;;;2.40;;
14704;SDS011;7442;50.840;3.396;2022-12-07T09:53:51;8.15;;;2.80;;
14704;SDS011;7442;50.840;3.396;2022-12-07T09:56:23;5.95;;;2.85;;
14704;SDS011;7442;50.840;3.396;2022-12-07T09:59:00;17.92;;;4.03;;
14704;SDS011;7442;50.840;3.396;2022-12-07T10:01:33;45.28;;;11.00;;
14704;SDS011;7442;50.840;3.396;2022-12-07T10:04:23;44.90;;;12.63;;
14704;SDS011;7442;50.840;3.396;2022-12-07T10:06:49;42.48;;;15.50;;
14704;SDS011;7442;50.840;3.396;2022-12-07T10:09:20;47.62;;;16.70;;
14704;SDS011;7442;50.840;3.396;2022-12-07T10:12:04;51.15;;;15.95;;
14704;SDS011;7442;50.840;3.396;2022-12-07T10:14:34;44.23;;;14.55;;
14704;SDS011;7442;50.840;3.396;2022-12-07T10:17:21;39.70;;;13.68;;
14704;SDS011;7442;50.840;3.396;2022-12-07T10:19:39;48.50;;;13.68;;
14704;SDS011;7442;50.840;3.396;2022-12-07T10:22:15;40.08;;;12.75;;
14704;SDS011;7442;50.840;3.396;2022-12-07T10:24:44;38.65;;;12.23;;
14704;SDS011;7442;50.840;3.396;2022-12-07T10:27:18;33.98;;;11.43;;
14704;SDS011;7442;50.840;3.396;2022-12-07T10:29:51;28.70;;;10.85;;
14704;SDS011;7442;50.840;3.396;2022-12-07T10:35:24;32.88;;;10.65;;
14704;SDS011;7442;50.840;3.396;2022-12-07T10:37:49;29.20;;;9.30;;
14704;SDS011;7442;50.840;3.396;2022-12-07T10:40:28;27.70;;;9.98;;
14704;SDS011;7442;50.840;3.396;2022-12-07T10:43:03;23.65;;;8.65;;
14704;SDS011;7442;50.840;3.396;2022-12-07T10:51:26;19.62;;;7.40;;
14704;SDS011;7442;50.840;3.396;2022-12-07T10:54:03;21.73;;;7.97;;
14704;SDS011;7442;50.840;3.396;2022-12-07T11:01:52;19.30;;;6.35;;
14704;SDS011;7442;50.840;3.396;2022-12-07T11:04:50;14.87;;;5.35;;
14704;SDS011;7442;50.840;3.396;2022-12-07T11:07:18;19.40;;;6.10;;
14704;SDS011;7442;50.840;3.396;2022-12-07T11:15:03;18.82;;;6.47;;
14704;SDS011;7442;50.840;3.396;2022-12-07T11:17:36;15.70;;;5.53;;
14704;SDS011;7442;50.840;3.396;2022-12-07T11:25:51;23.90;;;5.80;;
14704;SDS011;7442;50.840;3.396;2022-12-07T11:30:57;31.60;;;5.22;;
14704;SDS011;7442;50.840;3.396;2022-12-07T11:33:39;22.60;;;5.78;;
14704;SDS011;7442;50.840;3.396;2022-12-07T11:36:35;21.20;;;5.28;;
14704;SDS011;7442;50.840;3.396;2022-12-07T11:39:09;24.90;;;5.10;;
14704;SDS011;7442;50.840;3.396;2022-12-07T11:41:38;20.27;;;5.47;;
14704;SDS011;7442;50.840;3.396;2022-12-07T11:44:32;17.73;;;5.03;;
14704;SDS011;7442;50.840;3.396;2022-12-07T11:46:58;19.80;;;5.50;;
14704;SDS011;7442;50.840;3.396;2022-12-07T11:49:47;17.73;;;4.85;;
14704;SDS011;7442;50.840;3.396;2022-12-07T11:52:20;14.95;;;5.33;;
14704;SDS011;7442;50.840;3.396;2022-12-07T11:54:49;20.68;;;5.28;;
14704;SDS011;7442;50.840;3.396;2022-12-07T11:58:09;19.82;;;5.20;;
14704;SDS011;7442;50.840;3.396;2022-12-07T11:59:56;20.02;;;4.90;;
14704;SDS011;7442;50.840;3.396;2022-12-07T12:02:28;30.88;;;5.30;;
14704;SDS011;7442;50.840;3.396;2022-12-07T12:05:13;26.12;;;5.22;;
14704;SDS011;7442;50.840;3.396;2022-12-07T12:08:36;29.50;;;4.90;;
14704;SDS011;7442;50.840;3.396;2022-12-07T12:16:12;31.20;;;5.12;;
14704;SDS011;7442;50.840;3.396;2022-12-07T12:21:35;30.75;;;5.20;;
14704;SDS011;7442;50.840;3.396;2022-12-07T12:24:14;20.12;;;4.90;;
14704;SDS011;7442;50.840;3.396;2022-12-07T12:26:54;26.82;;;5.05;;
14704;SDS011;7442;50.840;3.396;2022-12-07T12:29:34;18.42;;;4.67;;
14704;SDS011;7442;50.840;3.396;2022-12-07T12:32:22;22.27;;;4.72;;
14704;SDS011;7442;50.840;3.396;2022-12-07T12:35:00;26.85;;;4.90;;
14704;SDS011;7442;50.840;3.396;2022-12-07T12:40:48;17.12;;;4.40;;
14704;SDS011;7442;50.840;3.396;2022-12-07T12:42:44;12.58;;;4.35;;
14704;SDS011;7442;50.840;3.396;2022-12-07T12:45:26;17.07;;;4.42;;
14704;SDS011;7442;50.840;3.396;2022-12-07T12:47:59;20.55;;;4.00;;
14704;SDS011;7442;50.840;3.396;2022-12-07T12:50:35;21.87;;;4.55;;
14704;SDS011;7442;50.840;3.396;2022-12-07T12:55:46;16.12;;;4.50;;
14704;SDS011;7442;50.840;3.396;2022-12-07T12:58:34;19.10;;;5.28;;
14704;SDS011;7442;50.840;3.396;2022-12-07T13:01:39;19.87;;;4.80;;
14704;SDS011;7442;50.840;3.396;2022-12-07T13:03:55;17.32;;;4.65;;
14704;SDS011;7442;50.840;3.396;2022-12-07T13:08:56;16.00;;;4.33;;
14704;SDS011;7442;50.840;3.396;2022-12-07T13:11:32;14.78;;;4.20;;
14704;SDS011;7442;50.840;3.396;2022-12-07T13:20:01;15.53;;;3.05;;
14704;SDS011;7442;50.840;3.396;2022-12-07T13:28:01;32.28;;;5.33;;
14704;SDS011;7442;50.840;3.396;2022-12-07T13:30:26;24.30;;;3.77;;
14704;SDS011;7442;50.840;3.396;2022-12-07T13:32:58;32.53;;;4.62;;
14704;SDS011;7442;50.840;3.396;2022-12-07T13:35:36;21.42;;;3.77;;
14704;SDS011;7442;50.840;3.396;2022-12-07T13:38:13;41.02;;;4.85;;
14704;SDS011;7442;50.840;3.396;2022-12-07T13:41:00;28.75;;;4.22;;
14704;SDS011;7442;50.840;3.396;2022-12-07T13:43:41;24.25;;;4.00;;
14704;SDS011;7442;50.840;3.396;2022-12-07T13:46:03;33.25;;;4.53;;
14704;SDS011;7442;50.840;3.396;2022-12-07T13:48:35;30.92;;;4.20;;
14704;SDS011;7442;50.840;3.396;2022-12-07T13:51:34;24.32;;;4.45;;
14704;SDS011;7442;50.840;3.396;2022-12-07T13:53:51;25.30;;;3.98;;
14704;SDS011;7442;50.840;3.396;2022-12-07T13:56:21;23.47;;;3.72;;
14704;SDS011;7442;50.840;3.396;2022-12-07T13:58:50;23.27;;;3.50;;
14704;SDS011;7442;50.840;3.396;2022-12-07T14:01:18;14.85;;;3.42;;
14704;SDS011;7442;50.840;3.396;2022-12-07T14:03:46;16.62;;;3.47;;
14704;SDS011;7442;50.840;3.396;2022-12-07T14:06:15;19.98;;;3.25;;
14704;SDS011;7442;50.840;3.396;2022-12-07T14:08:45;22.35;;;3.27;;
14704;SDS011;7442;50.840;3.396;2022-12-07T14:11:18;17.07;;;3.60;;
14704;SDS011;7442;50.840;3.396;2022-12-07T14:14:05;17.45;;;3.02;;
14704;SDS011;7442;50.840;3.396;2022-12-07T14:16:28;15.38;;;3.40;;
14704;SDS011;7442;50.840;3.396;2022-12-07T14:18:58;10.48;;;3.50;;
14704;SDS011;7442;50.840;3.396;2022-12-07T14:21:29;19.00;;;3.50;;
14704;SDS011;7442;50.840;3.396;2022-12-07T14:26:35;19.15;;;3.75;;
14704;SDS011;7442;50.840;3.396;2022-12-07T14:31:54;13.80;;;3.02;;
14704;SDS011;7442;50.840;3.396;2022-12-07T14:34:24;17.95;;;3.33;;
14704;SDS011;7442;50.840;3.396;2022-12-07T14:36:52;17.10;;;3.15;;
14704;SDS011;7442;50.840;3.396;2022-12-07T14:39:19;17.45;;;3.17;;
14704;SDS011;7442;50.840;3.396;2022-12-07T14:41:47;15.00;;;3.12;;
14704;SDS011;7442;50.840;3.396;2022-12-07T14:44:19;15.32;;;3.25;;
14704;SDS011;7442;50.840;3.396;2022-12-07T14:46:49;9.83;;;2.70;;
14704;SDS011;7442;50.840;3.396;2022-12-07T14:49:17;10.38;;;2.58;;
14704;SDS011;7442;50.840;3.396;2022-12-07T14:51:45;8.93;;;2.45;;
14704;SDS011;7442;50.840;3.396;2022-12-07T14:54:16;12.33;;;2.20;;
14704;SDS011;7442;50.840;3.396;2022-12-07T14:56:44;11.03;;;2.55;;
14704;SDS011;7442;50.840;3.396;2022-12-07T14:59:17;8.53;;;2.37;;
14704;SDS011;7442;50.840;3.396;2022-12-07T15:01:44;10.32;;;2.40;;
14704;SDS011;7442;50.840;3.396;2022-12-07T15:04:17;9.68;;;2.92;;
14704;SDS011;7442;50.840;3.396;2022-12-07T15:06:42;7.08;;;1.92;;
14704;SDS011;7442;50.840;3.396;2022-12-07T15:09:12;10.03;;;2.72;;
14704;SDS011;7442;50.840;3.396;2022-12-07T15:11:39;11.70;;;2.45;;
14704;SDS011;7442;50.840;3.396;2022-12-07T15:14:07;12.20;;;2.60;;
14704;SDS011;7442;50.840;3.396;2022-12-07T15:16:37;7.42;;;2.35;;
14704;SDS011;7442;50.840;3.396;2022-12-07T15:19:10;9.00;;;2.08;;
14704;SDS011;7442;50.840;3.396;2022-12-07T15:21:40;11.80;;;2.35;;
14704;SDS011;7442;50.840;3.396;2022-12-07T15:24:09;8.43;;;2.62;;
14704;SDS011;7442;50.840;3.396;2022-12-07T15:26:38;11.33;;;2.33;;
14704;SDS011;7442;50.840;3.396;2022-12-07T15:29:07;14.80;;;2.45;;
14704;SDS011;7442;50.840;3.396;2022-12-07T15:31:35;12.93;;;2.70;;
14704;SDS011;7442;50.840;3.396;2022-12-07T15:34:03;18.48;;;2.90;;
14704;SDS011;7442;50.840;3.396;2022-12-07T15:36:31;9.75;;;2.85;;
14704;SDS011;7442;50.840;3.396;2022-12-07T15:39:01;14.90;;;2.65;;
14704;SDS011;7442;50.840;3.396;2022-12-07T15:41:29;15.85;;;3.37;;
14704;SDS011;7442;50.840;3.396;2022-12-07T15:43:57;22.85;;;3.30;;
14704;SDS011;7442;50.840;3.396;2022-12-07T15:49:17;19.37;;;3.22;;
14704;SDS011;7442;50.840;3.396;2022-12-07T15:51:47;23.67;;;3.17;;
14704;SDS011;7442;50.840;3.396;2022-12-07T15:54:21;23.95;;;2.75;;
14704;SDS011;7442;50.840;3.396;2022-12-07T15:56:51;19.92;;;2.90;;
14704;SDS011;7442;50.840;3.396;2022-12-07T15:59:19;13.05;;;2.58;;
14704;SDS011;7442;50.840;3.396;2022-12-07T16:01:48;12.13;;;2.70;;
14704;SDS011;7442;50.840;3.396;2022-12-07T16:04:16;10.00;;;2.33;;
14704;SDS011;7442;50.840;3.396;2022-12-07T16:06:44;10.63;;;2.17;;
14704;SDS011;7442;50.840;3.396;2022-12-07T16:09:12;14.58;;;2.72;;
14704;SDS011;7442;50.840;3.396;2022-12-07T16:11:40;18.45;;;3.35;;
14704;SDS011;7442;50.840;3.396;2022-12-07T16:14:07;17.48;;;3.25;;
14704;SDS011;7442;50.840;3.396;2022-12-07T16:16:35;16.95;;;3.92;;
14704;SDS011;7442;50.840;3.396;2022-12-07T16:19:02;8.63;;;3.50;;
14704;SDS011;7442;50.840;3.396;2022-12-07T16:21:30;17.45;;;3.08;;
14704;SDS011;7442;50.840;3.396;2022-12-07T16:23:59;8.95;;;2.92;;
14704;SDS011;7442;50.840;3.396;2022-12-07T16:26:26;17.27;;;3.37;;
14704;SDS011;7442;50.840;3.396;2022-12-07T16:28:54;15.25;;;3.05;;
14704;SDS011;7442;50.840;3.396;2022-12-07T16:31:22;14.75;;;3.20;;
14704;SDS011;7442;50.840;3.396;2022-12-07T16:33:55;14.78;;;3.42;;
14704;SDS011;7442;50.840;3.396;2022-12-07T16:36:24;15.35;;;3.37;;
14704;SDS011;7442;50.840;3.396;2022-12-07T16:38:53;19.73;;;3.00;;
14704;SDS011;7442;50.840;3.396;2022-12-07T16:41:23;9.30;;;3.35;;
14704;SDS011;7442;50.840;3.396;2022-12-07T16:43:50;12.25;;;3.45;;
14704;SDS011;7442;50.840;3.396;2022-12-07T16:46:18;12.70;;;2.92;;
14704;SDS011;7442;50.840;3.396;2022-12-07T16:50:03;14.73;;;4.35;;
14704;SDS011;7442;50.840;3.396;2022-12-07T16:52:31;26.40;;;4.70;;
14704;SDS011;7442;50.840;3.396;2022-12-07T16:54:58;18.75;;;3.80;;
14704;SDS011;7442;50.840;3.396;2022-12-07T16:57:26;19.85;;;3.90;;